createdAt,value
2019-03-18T00:02:05.220Z,98569.97
2019-03-18T00:05:18.793Z,98575.93
2019-03-18T00:08:32.253Z,98570.86
2019-03-18T00:11:45.697Z,98571.58
2019-03-18T00:15:01.519Z,98576.64
2019-03-18T00:18:14.792Z,98579.06
2019-03-18T00:21:28.247Z,98570.64
2019-03-18T00:24:41.699Z,98580.11
2019-03-18T00:27:55.150Z,98586.59
2019-03-18T00:31:08.855Z,98586.92
2019-03-18T00:34:22.307Z,98584.47
2019-03-18T00:37:35.772Z,98586.88
2019-03-18T00:40:49.320Z,98593.69
2019-03-18T00:44:09.946Z,98582.99
2019-03-18T00:47:23.422Z,98582.78
2019-03-18T00:50:36.879Z,98583.11
2019-03-18T00:53:50.612Z,98589.67
2019-03-18T00:57:04.195Z,98580.74
2019-03-18T01:00:18.552Z,98581.50
2019-03-18T01:03:32.022Z,98586.28
2019-03-18T01:06:45.488Z,98581.73
2019-03-18T01:09:58.959Z,98587.22
2019-03-18T01:13:12.434Z,98582.23
2019-03-18T01:16:25.918Z,98580.36
2019-03-18T01:19:39.639Z,98578.93
2019-03-18T01:22:53.123Z,98568.87
2019-03-18T01:26:06.604Z,98566.25
2019-03-18T01:29:20.087Z,98570.99
2019-03-18T01:32:33.763Z,98567.56
2019-03-18T01:35:47.243Z,98569.51
2019-03-18T01:39:00.750Z,98566.51
2019-03-18T01:42:16.720Z,98565.83
2019-03-18T01:45:40.116Z,98572.55
2019-03-18T01:48:44.983Z,98574.28
2019-03-18T01:51:58.544Z,98575.30
2019-03-18T01:55:12.133Z,98590.26
2019-03-18T01:58:25.614Z,98590.94
2019-03-18T02:01:39.097Z,98590.94
2019-03-18T02:04:52.577Z,98593.30
2019-03-18T02:08:06.060Z,98599.48
2019-03-18T02:11:19.534Z,98599.42
2019-03-18T02:14:33.006Z,98596.25
2019-03-18T02:17:46.580Z,98598.29
2019-03-18T02:21:00.053Z,98590.94
2019-03-18T02:24:13.630Z,98604.04
2019-03-18T02:27:27.108Z,98611.56
2019-03-18T02:30:40.583Z,98619.77
2019-03-18T02:33:54.280Z,98618.83
2019-03-18T02:37:08.049Z,98611.02
2019-03-18T02:40:21.569Z,98618.28
2019-03-18T02:43:35.293Z,98614.61
2019-03-18T02:46:49.349Z,98622.55
2019-03-18T02:50:03.438Z,98622.42
2019-03-18T02:53:16.925Z,98613.67
2019-03-18T02:56:30.420Z,98610.68
2019-03-18T02:59:43.967Z,98615.20
2019-03-18T03:02:57.497Z,98620.61
2019-03-18T03:06:10.960Z,98622.08
2019-03-18T03:09:24.432Z,98616.22
2019-03-18T03:12:38.077Z,98612.69
2019-03-18T03:15:51.772Z,98615.16
2019-03-18T03:19:06.065Z,98614.44
2019-03-18T03:22:19.541Z,98619.88
2019-03-18T03:25:33.033Z,98617.82
2019-03-18T03:28:46.504Z,98625.44
2019-03-18T03:31:59.994Z,98630.57
2019-03-18T03:35:14.189Z,98625.58
2019-03-18T03:38:28.146Z,98627.58
2019-03-18T03:41:41.708Z,98633.20
2019-03-18T03:44:55.178Z,98632.53
2019-03-18T03:48:09.063Z,98643.06
2019-03-18T03:51:22.570Z,98640.45
2019-03-18T03:54:36.166Z,98638.83
2019-03-18T03:57:50.207Z,98641.29
2019-03-18T04:01:03.916Z,98640.16
2019-03-18T04:04:17.471Z,98646.12
2019-03-18T04:07:31.138Z,98639.50
2019-03-18T04:10:44.819Z,98653.73
2019-03-18T04:13:58.354Z,98654.06
2019-03-18T04:17:11.827Z,98647.31
2019-03-18T04:20:25.314Z,98647.31
2019-03-18T04:23:38.802Z,98653.45
2019-03-18T04:26:52.542Z,98664.73
2019-03-18T04:30:06.749Z,98664.66
2019-03-18T04:33:20.222Z,98666.81
2019-03-18T04:36:33.832Z,98677.14
2019-03-18T04:39:47.301Z,98676.32
2019-03-18T04:43:01.013Z,98674.52
2019-03-18T04:46:14.488Z,98684.83
2019-03-18T04:49:30.689Z,98690.51
2019-03-18T04:52:44.459Z,98696.91
2019-03-18T04:55:57.930Z,98695.20
2019-03-18T04:59:12.007Z,98697.62
2019-03-18T05:02:25.468Z,98718.95
2019-03-18T05:05:38.963Z,98726.16
2019-03-18T05:08:54.994Z,98728.20
2019-03-18T05:12:35.818Z,98732.69
2019-03-18T05:15:49.411Z,98739.41
2019-03-18T05:19:03.137Z,98737.93
2019-03-18T05:22:16.989Z,98751.59
2019-03-18T05:25:30.816Z,98756.72
2019-03-18T05:28:44.283Z,98746.92
2019-03-18T05:31:57.764Z,98749.58
2019-03-18T05:35:11.517Z,98756.68
2019-03-18T05:38:25.014Z,98763.16
2019-03-18T05:41:38.771Z,98768.55
2019-03-18T05:44:52.246Z,98769.41
2019-03-18T05:48:06.012Z,98767.17
2019-03-18T05:51:19.501Z,98769.61
2019-03-18T05:54:32.969Z,98769.37
2019-03-18T05:57:46.440Z,98774.42
2019-03-18T06:00:59.915Z,98786.38
2019-03-18T06:07:40.678Z,98784.16
2019-03-18T06:10:54.168Z,98796.36
2019-03-18T06:14:07.976Z,98793.12
2019-03-18T06:17:21.477Z,98801.33
2019-03-18T06:20:34.978Z,98805.75
2019-03-18T06:23:48.449Z,98805.55
2019-03-18T06:27:01.922Z,98818.57
2019-03-18T06:30:15.601Z,98829.44
2019-03-18T06:33:29.067Z,98829.98
2019-03-18T06:36:42.901Z,98840.75
2019-03-18T06:39:56.380Z,98840.55
2019-03-18T06:43:10.172Z,98839.17
2019-03-18T06:46:23.911Z,98849.11
2019-03-18T06:49:37.377Z,98842.36
2019-03-18T06:52:58.809Z,98842.42
2019-03-18T06:56:12.534Z,98857.84
2019-03-18T06:59:25.997Z,98854.42
2019-03-18T07:02:39.535Z,98857.08
2019-03-18T07:05:53.036Z,98851.05
2019-03-18T07:09:06.800Z,98854.14
2019-03-18T07:12:20.289Z,98860.11
2019-03-18T07:15:33.775Z,98858.00
2019-03-18T07:18:47.570Z,98866.68
2019-03-18T07:22:01.042Z,98874.91
2019-03-18T07:25:14.609Z,98874.93
2019-03-18T07:28:28.473Z,98878.69
2019-03-18T07:31:41.946Z,98891.78
2019-03-18T07:34:55.711Z,98903.31
2019-03-18T07:38:09.527Z,98901.47
2019-03-18T07:41:23.121Z,98892.50
2019-03-18T07:44:36.902Z,98895.89
2019-03-18T07:47:50.646Z,98890.95
2019-03-18T07:51:04.131Z,98896.93
2019-03-18T07:54:17.715Z,98898.25
2019-03-18T07:57:32.747Z,98899.84
2019-03-18T08:00:46.392Z,98909.80
2019-03-18T08:04:00.115Z,98913.28
2019-03-18T08:07:13.883Z,98923.08
2019-03-18T08:10:27.608Z,98919.56
2019-03-18T08:13:41.081Z,98924.34
2019-03-18T08:16:54.567Z,98930.11
2019-03-18T08:20:08.339Z,98927.26
2019-03-18T08:23:21.938Z,98937.97
2019-03-18T08:26:35.434Z,98937.78
2019-03-18T08:29:49.192Z,98947.55
2019-03-18T08:33:02.792Z,98949.07
2019-03-18T08:36:16.284Z,98951.38
2019-03-18T08:39:29.762Z,98949.75
2019-03-18T08:42:43.278Z,98969.79
2019-03-18T08:45:56.765Z,98973.47
2019-03-18T08:49:10.240Z,98966.16
2019-03-18T08:52:24.045Z,98960.36
2019-03-18T08:55:37.899Z,98967.36
2019-03-18T08:58:51.475Z,98974.29
2019-03-18T09:02:05.487Z,98976.84
2019-03-18T09:05:18.985Z,98977.40
2019-03-18T09:08:32.643Z,98969.66
2019-03-18T09:11:46.115Z,98975.48
2019-03-18T09:14:59.602Z,98960.19
2019-03-18T09:18:13.292Z,98983.77
2019-03-18T09:21:27.079Z,98986.36
2019-03-18T09:24:40.599Z,98993.64
2019-03-18T09:27:54.912Z,98991.93
2019-03-18T09:31:08.418Z,98992.95
2019-03-18T09:34:21.969Z,99003.99
2019-03-18T09:37:35.548Z,99001.11
2019-03-18T09:40:49.572Z,99007.59
2019-03-18T09:44:03.357Z,99015.67
2019-03-18T09:47:16.839Z,99005.16
2019-03-18T09:50:30.535Z,99017.06
2019-03-18T09:53:44.716Z,99010.48
2019-03-18T09:56:58.279Z,99013.00
2019-03-18T10:00:12.424Z,99010.73
2019-03-18T10:03:26.062Z,99016.10
2019-03-18T10:06:39.589Z,99015.32
2019-03-18T10:09:53.334Z,99020.60
2019-03-18T10:13:06.799Z,99028.05
2019-03-18T10:16:20.441Z,99032.50
2019-03-18T10:19:34.070Z,99030.23
2019-03-18T10:22:47.487Z,99025.09
2019-03-18T10:26:00.965Z,99026.84
2019-03-18T10:29:14.444Z,99044.70
2019-03-18T10:32:28.190Z,99036.11
2019-03-18T10:35:41.675Z,99024.08
2019-03-18T10:38:55.501Z,99038.91
2019-03-18T10:42:09.065Z,99039.41
2019-03-18T10:45:25.758Z,99048.61
2019-03-18T10:48:38.535Z,99045.55
2019-03-18T10:51:52.198Z,99032.80
2019-03-18T10:55:07.137Z,99036.38
2019-03-18T10:58:20.630Z,99037.87
2019-03-18T11:01:34.119Z,99049.56
2019-03-18T11:04:47.714Z,99039.84
2019-03-18T11:08:01.273Z,99039.07
2019-03-18T11:11:15.107Z,99044.11
2019-03-18T11:14:28.587Z,99041.66
2019-03-18T11:17:42.419Z,99049.33
2019-03-18T11:20:56.353Z,99047.25
2019-03-18T11:24:09.819Z,99036.89
2019-03-18T11:27:23.326Z,99030.97
2019-03-18T11:30:36.829Z,99034.30
2019-03-18T11:33:50.315Z,99046.72
2019-03-18T11:37:04.104Z,99033.79
2019-03-18T11:40:18.120Z,99036.06
2019-03-18T11:43:31.905Z,99019.75
2019-03-18T11:46:46.043Z,99018.16
2019-03-18T11:50:10.309Z,99010.30
2019-03-18T11:53:15.385Z,99018.45
2019-03-18T11:56:29.352Z,99026.30
2019-03-18T11:59:43.318Z,99016.97
2019-03-18T12:02:57.248Z,99021.03
2019-03-18T12:06:10.726Z,99008.91
2019-03-18T12:09:24.349Z,99017.64
2019-03-18T12:12:37.880Z,99018.05
2019-03-18T12:15:51.555Z,98999.77
2019-03-18T12:19:05.525Z,99000.17
2019-03-18T12:22:19.219Z,99011.86
2019-03-18T12:25:33.858Z,99011.06
2019-03-18T12:28:48.207Z,99005.91
2019-03-18T12:32:01.942Z,99002.35
2019-03-18T12:35:15.556Z,99008.67
2019-03-18T12:38:29.369Z,99010.29
2019-03-18T12:41:42.843Z,99012.48
2019-03-18T12:44:56.423Z,99029.88
2019-03-18T12:48:09.883Z,99034.64
2019-03-18T12:51:23.575Z,99049.80
2019-03-18T12:54:37.179Z,99081.99
2019-03-18T12:57:50.641Z,99094.94
2019-03-18T13:01:12.610Z,99089.09
2019-03-18T13:04:19.727Z,99085.26
2019-03-18T13:07:33.300Z,99090.57
2019-03-18T13:10:46.787Z,99074.62
2019-03-18T13:14:00.257Z,99075.12
2019-03-18T13:17:13.728Z,99069.89
2019-03-18T13:20:27.324Z,99063.67
2019-03-18T13:23:41.134Z,99058.11
2019-03-18T13:26:54.623Z,99051.03
2019-03-18T13:30:10.839Z,99050.95
2019-03-18T13:33:24.298Z,99043.34
2019-03-18T13:36:37.883Z,99025.99
2019-03-18T13:39:51.468Z,99012.25
2019-03-18T13:43:05.191Z,99022.19
2019-03-18T13:46:18.872Z,99019.81
2019-03-18T13:49:32.928Z,99018.36
2019-03-18T13:52:46.505Z,99017.84
2019-03-18T13:56:00.145Z,99012.05
2019-03-18T13:59:13.734Z,99009.48
2019-03-18T14:02:27.343Z,98997.75
2019-03-18T14:05:41.111Z,99013.28
2019-03-18T14:08:54.585Z,99014.16
2019-03-18T14:12:08.266Z,99004.91
2019-03-18T14:15:21.854Z,99009.13
2019-03-18T14:18:35.545Z,99004.70
2019-03-18T14:21:49.075Z,99011.20
2019-03-18T14:25:03.090Z,99005.25
2019-03-18T14:28:16.573Z,99003.59
2019-03-18T14:31:30.333Z,99012.77
2019-03-18T14:34:43.809Z,99028.86
2019-03-18T14:37:57.590Z,99029.52
2019-03-18T14:41:11.107Z,99046.48
2019-03-18T14:44:24.695Z,99064.53
2019-03-18T14:47:38.189Z,99081.60
2019-03-18T14:50:51.767Z,99095.28
2019-03-18T14:54:05.367Z,99107.14
2019-03-18T14:57:18.846Z,99115.53
2019-03-18T15:00:32.493Z,99123.46
2019-03-18T15:03:45.968Z,99129.01
2019-03-18T15:06:59.473Z,99129.98
2019-03-18T15:10:13.188Z,99126.31
2019-03-18T15:13:31.182Z,99122.80
2019-03-18T15:16:42.090Z,99109.03
2019-03-18T15:19:55.572Z,99101.36
2019-03-18T15:23:09.470Z,99082.19
2019-03-18T15:26:22.955Z,99072.81
2019-03-18T15:29:36.798Z,99071.36
2019-03-18T15:32:50.452Z,99075.55
2019-03-18T15:36:04.459Z,99079.78
2019-03-18T15:39:17.956Z,99089.41
2019-03-18T15:42:31.858Z,99083.19
2019-03-18T15:45:45.550Z,99089.84
2019-03-18T15:48:59.485Z,99100.28
2019-03-18T15:52:13.001Z,99098.28
2019-03-18T15:55:26.758Z,99096.88
2019-03-18T15:58:40.243Z,99094.86
2019-03-18T16:01:53.728Z,99096.22
2019-03-18T16:05:07.747Z,99095.23
2019-03-18T16:08:21.618Z,99089.17
2019-03-18T16:11:35.382Z,99092.41
2019-03-18T16:14:48.858Z,99099.48
2019-03-18T16:18:02.642Z,99093.73
2019-03-18T16:21:16.102Z,99102.88
2019-03-18T16:24:30.032Z,99101.20
2019-03-18T16:27:43.603Z,99101.25
2019-03-18T16:30:57.077Z,99106.19
2019-03-18T16:34:10.678Z,99111.00
2019-03-18T16:37:24.443Z,99115.13
2019-03-18T16:40:38.037Z,99118.47
2019-03-18T16:43:51.765Z,99127.00
2019-03-18T16:47:08.472Z,99134.16
2019-03-18T16:50:22.051Z,99137.09
2019-03-18T16:53:35.880Z,99134.77
2019-03-18T16:56:49.361Z,99138.95
2019-03-18T17:00:03.629Z,99139.26
2019-03-18T17:03:17.118Z,99141.83
2019-03-18T17:06:31.027Z,99147.45
2019-03-18T17:09:44.552Z,99155.77
2019-03-18T17:12:58.033Z,99165.10
2019-03-18T17:16:11.867Z,99168.34
2019-03-18T17:19:25.498Z,99166.48
2019-03-18T17:22:49.031Z,99173.23
2019-03-18T17:25:54.556Z,99175.12
2019-03-18T17:29:08.146Z,99183.66
2019-03-18T17:32:21.639Z,99182.06
2019-03-18T17:35:35.219Z,99191.32
2019-03-18T17:38:48.837Z,99204.75
2019-03-18T17:42:02.727Z,99208.98
2019-03-18T17:45:16.415Z,99211.31
2019-03-18T17:48:30.117Z,99217.25
2019-03-18T17:51:43.625Z,99226.34
2019-03-18T17:54:57.118Z,99236.41
2019-03-18T17:58:10.633Z,99242.23
2019-03-18T18:01:24.161Z,99253.20
2019-03-18T18:04:37.634Z,99252.15
2019-03-18T18:07:51.130Z,99254.80
2019-03-18T18:11:04.618Z,99265.09
2019-03-18T18:14:18.089Z,99275.89
2019-03-18T18:17:31.578Z,99281.83
2019-03-18T18:20:45.081Z,99277.65
2019-03-18T18:23:58.553Z,99283.23
2019-03-18T18:27:12.031Z,99286.30
2019-03-18T18:30:25.884Z,99295.23
2019-03-18T18:33:39.481Z,99295.39
2019-03-18T18:36:53.327Z,99309.71
2019-03-18T18:40:08.669Z,99315.41
2019-03-18T18:43:22.161Z,99315.23
2019-03-18T18:46:35.680Z,99317.63
2019-03-18T18:49:49.177Z,99318.00
2019-03-18T18:53:03.106Z,99325.14
2019-03-18T18:56:16.601Z,99327.27
2019-03-18T18:59:30.076Z,99327.14
2019-03-18T19:02:43.787Z,99328.53
2019-03-18T19:05:57.262Z,99340.98
2019-03-18T19:09:11.309Z,99345.40
2019-03-18T19:12:24.800Z,99344.12
2019-03-18T19:15:38.389Z,99354.42
2019-03-18T19:18:51.873Z,99355.59
2019-03-18T19:22:05.587Z,99360.81
2019-03-18T19:25:19.245Z,99371.41
2019-03-18T19:28:32.963Z,99365.89
2019-03-18T19:31:46.459Z,99375.88
2019-03-18T19:34:59.995Z,99377.09
2019-03-18T19:38:14.046Z,99378.07
2019-03-18T19:41:27.519Z,99387.68
2019-03-18T19:44:41.007Z,99380.97
2019-03-18T19:47:54.886Z,99388.09
2019-03-18T19:51:08.350Z,99380.97
2019-03-18T19:54:22.159Z,99385.23
2019-03-18T19:57:35.999Z,99381.93
2019-03-18T20:00:49.476Z,99394.25
2019-03-18T20:04:03.197Z,99395.31
2019-03-18T20:07:16.659Z,99390.84
2019-03-18T20:10:30.156Z,99406.80
2019-03-18T20:13:43.712Z,99404.45
2019-03-18T20:16:57.198Z,99408.45
2019-03-18T20:20:11.607Z,99404.63
2019-03-18T20:23:25.377Z,99416.48
2019-03-18T20:26:38.963Z,99424.23
2019-03-18T20:29:52.445Z,99422.33
2019-03-18T20:33:05.928Z,99423.13
2019-03-18T20:36:19.634Z,99431.39
2019-03-18T20:39:33.477Z,99430.06
2019-03-18T20:42:47.252Z,99437.40
2019-03-18T20:46:01.291Z,99435.92
2019-03-18T20:49:16.993Z,99443.48
2019-03-18T20:52:30.763Z,99448.17
2019-03-18T20:55:44.761Z,99447.09
2019-03-18T20:58:58.246Z,99454.21
2019-03-18T21:02:11.737Z,99451.47
2019-03-18T21:05:25.670Z,99459.30
2019-03-18T21:08:39.219Z,99471.82
2019-03-18T21:11:52.824Z,99472.42
2019-03-18T21:15:07.174Z,99468.48
2019-03-18T21:18:20.646Z,99469.89
2019-03-18T21:21:34.127Z,99468.28
2019-03-18T21:24:48.009Z,99478.85
2019-03-18T21:28:01.581Z,99474.53
2019-03-18T21:31:15.063Z,99477.72
2019-03-18T21:34:28.877Z,99481.73
2019-03-18T21:37:42.856Z,99478.63
2019-03-18T21:40:56.333Z,99477.36
2019-03-18T21:44:09.798Z,99479.38
2019-03-18T21:47:23.409Z,99481.24
2019-03-18T21:50:37.052Z,99493.30
2019-03-18T21:57:17.778Z,99492.28
2019-03-18T22:00:31.385Z,99499.48
2019-03-18T22:03:44.859Z,99502.82
2019-03-18T22:06:58.337Z,99501.03
2019-03-18T22:10:12.142Z,99505.41
2019-03-18T22:13:25.923Z,99510.02
2019-03-18T22:16:39.663Z,99509.73
2019-03-18T22:19:53.127Z,99513.95
2019-03-18T22:23:06.744Z,99512.72
2019-03-18T22:26:20.546Z,99511.52
2019-03-18T22:29:34.062Z,99521.18
2019-03-18T22:32:47.741Z,99523.92
2019-03-18T22:36:03.414Z,99526.30
2019-03-18T22:39:17.032Z,99522.14
2019-03-18T22:42:30.829Z,99525.76
2019-03-18T22:45:44.478Z,99527.04
2019-03-18T22:48:58.076Z,99538.84
2019-03-18T22:52:12.437Z,99540.30
2019-03-18T22:55:25.920Z,99537.77
2019-03-18T22:58:39.411Z,99542.28
2019-03-18T23:01:52.950Z,99541.02
2019-03-18T23:05:06.879Z,99542.08
2019-03-18T23:08:20.661Z,99547.16
2019-03-18T23:11:34.162Z,99539.72
2019-03-18T23:14:47.666Z,99547.14
2019-03-18T23:18:01.380Z,99540.97
2019-03-18T23:21:14.895Z,99556.53
2019-03-18T23:24:29.055Z,99559.61
2019-03-18T23:27:42.556Z,99563.05
2019-03-18T23:30:56.256Z,99562.96
2019-03-18T23:34:10.433Z,99566.37
2019-03-18T23:37:26.571Z,99564.20
2019-03-18T23:40:40.405Z,99579.17
2019-03-18T23:43:53.883Z,99579.91
2019-03-18T23:47:08.147Z,99580.64
2019-03-18T23:50:21.715Z,99581.48
2019-03-18T23:53:35.541Z,99590.47
2019-03-18T23:56:49.167Z,99591.20
